Time;durP1;ratioP1;P1;durP2;ratioP2;P2;SDS_P1;SDS_P2;PMS_P1;PMS_P2;Temp;Humidity;BMP_temperature;BMP_pressure;BME280_temperature;BME280_humidity;BME280_pressure;Samples;Min_cycle;Max_cycle;Signal;HPM_P1;HPM_P2
2021/01/13 00:01:38;;;;;;;18.55;7.18;;;2.40;90.80;;;;;;5050082;28;20451;-74
2021/01/13 00:04:05;;;;;;;17.65;7.38;;;2.40;90.70;;;;;;5045208;28;20029;-77
2021/01/13 00:06:31;;;;;;;17.95;6.90;;;2.40;90.50;;;;;;5050613;28;20039;-76
2021/01/13 00:08:56;;;;;;;16.67;6.80;;;2.40;90.40;;;;;;5046689;28;20041;-75
2021/01/13 00:11:22;;;;;;;17.10;7.05;;;2.30;90.40;;;;;;5048157;28;20167;-81
2021/01/13 00:13:48;;;;;;;15.18;6.93;;;2.30;90.40;;;;;;5048297;28;20055;-74
2021/01/13 00:16:14;;;;;;;16.70;7.65;;;2.30;90.50;;;;;;5046317;28;20041;-76
2021/01/13 00:18:40;;;;;;;15.38;6.93;;;2.30;90.50;;;;;;5049960;28;20075;-74
2021/01/13 00:21:12;;;;;;;14.95;6.38;;;2.20;90.60;;;;;;5047402;28;20036;-79
2021/01/13 00:23:42;;;;;;;16.75;6.65;;;2.20;90.70;;;;;;5048534;28;20033;-78
2021/01/13 00:26:07;;;;;;;17.92;7.38;;;2.10;90.70;;;;;;5044045;28;20491;-80
2021/01/13 00:28:33;;;;;;;12.80;6.05;;;2.10;90.80;;;;;;5043765;28;20639;-77
2021/01/13 00:30:59;;;;;;;14.90;6.85;;;2.10;90.90;;;;;;5046893;28;20089;-77
2021/01/13 00:33:24;;;;;;;13.98;5.68;;;2.10;91.00;;;;;;5045289;28;20534;-75
2021/01/13 00:35:50;;;;;;;10.77;5.78;;;2.00;90.90;;;;;;5047811;28;20045;-74
2021/01/13 00:38:16;;;;;;;13.52;5.85;;;2.00;91.00;;;;;;5047746;28;20033;-79
2021/01/13 00:40:41;;;;;;;14.02;6.22;;;1.90;91.00;;;;;;5050080;28;20122;-75
2021/01/13 00:43:07;;;;;;;11.73;5.97;;;1.90;91.20;;;;;;5045875;28;20052;-76
2021/01/13 00:45:33;;;;;;;15.43;6.55;;;1.90;91.20;;;;;;5049878;28;20037;-74
2021/01/13 00:48:00;;;;;;;16.95;7.00;;;1.90;91.30;;;;;;5047742;28;20041;-75
2021/01/13 00:50:26;;;;;;;12.13;6.18;;;1.90;91.40;;;;;;5046633;28;20152;-75
2021/01/13 00:52:52;;;;;;;13.07;6.13;;;1.90;91.40;;;;;;5048410;28;20049;-75
2021/01/13 00:55:19;;;;;;;14.65;7.43;;;1.80;91.40;;;;;;5046018;28;20321;-76
2021/01/13 00:57:49;;;;;;;16.13;7.60;;;1.90;91.50;;;;;;5046894;28;20035;-74
2021/01/13 01:00:15;;;;;;;20.80;9.65;;;1.90;91.60;;;;;;5043352;28;20037;-74
2021/01/13 01:02:41;;;;;;;17.55;9.00;;;1.80;91.50;;;;;;5052242;28;20131;-75
2021/01/13 01:05:07;;;;;;;22.02;11.00;;;1.80;91.60;;;;;;5045552;28;20468;-74
2021/01/13 01:07:38;;;;;;;21.17;11.35;;;1.80;91.60;;;;;;5048615;28;20033;-75
2021/01/13 01:10:04;;;;;;;20.05;11.00;;;1.90;91.60;;;;;;5050553;28;20040;-77
2021/01/13 01:12:30;;;;;;;20.90;10.88;;;1.80;91.60;;;;;;5046466;28;20040;-78
2021/01/13 01:14:55;;;;;;;17.20;10.95;;;1.80;91.60;;;;;;5050285;28;20032;-74
2021/01/13 01:17:21;;;;;;;20.23;11.63;;;1.80;91.60;;;;;;5045883;28;20048;-75
2021/01/13 01:19:48;;;;;;;22.30;11.75;;;1.80;91.60;;;;;;5049119;28;20379;-77
2021/01/13 01:22:14;;;;;;;24.63;12.55;;;1.70;91.60;;;;;;5047993;28;20044;-75
2021/01/13 01:24:39;;;;;;;25.40;14.52;;;1.70;91.70;;;;;;5047826;28;20029;-75
2021/01/13 01:27:05;;;;;;;24.17;14.45;;;1.70;91.70;;;;;;5047354;28;20037;-75
2021/01/13 01:29:30;;;;;;;24.20;16.58;;;1.60;91.70;;;;;;5041290;28;20036;-76
2021/01/13 01:31:56;;;;;;;22.40;16.63;;;1.70;91.90;;;;;;5043332;28;20044;-74
2021/01/13 01:34:22;;;;;;;33.75;16.55;;;1.70;91.90;;;;;;5045574;28;20041;-75
2021/01/13 01:36:47;;;;;;;21.92;15.13;;;1.70;92.10;;;;;;5047743;28;20029;-75
2021/01/13 01:39:13;;;;;;;25.55;14.80;;;1.70;92.10;;;;;;5045985;28;20037;-76
2021/01/13 01:41:43;;;;;;;23.52;13.85;;;1.80;92.10;;;;;;5048488;28;20078;-78
2021/01/13 01:44:08;;;;;;;22.73;13.90;;;1.70;92.10;;;;;;5045554;28;20037;-74
2021/01/13 01:46:38;;;;;;;22.48;13.75;;;1.70;91.90;;;;;;5048329;28;20048;-75
2021/01/13 01:49:04;;;;;;;22.20;13.30;;;1.70;91.90;;;;;;5046817;28;20033;-78
2021/01/13 01:51:41;;;;;;;21.13;14.02;;;1.70;91.80;;;;;;5040140;28;20064;-74
2021/01/13 01:54:27;;;;;;;22.52;14.55;;;1.70;91.90;;;;;;5045809;28;20087;-79
2021/01/13 01:56:53;;;;;;;;;;;1.60;91.90;;;;;;5044455;28;20041;-81
2021/01/13 01:59:44;;;;;;;23.85;15.23;;;1.60;91.90;;;;;;5044966;28;19923;-80
2021/01/13 02:02:12;;;;;;;25.20;16.70;;;1.50;91.90;;;;;;5045329;28;20193;-75
2021/01/13 02:04:42;;;;;;;23.25;15.02;;;1.50;92.00;;;;;;5046964;28;20511;-74
2021/01/13 02:07:08;;;;;;;28.65;18.20;;;1.50;92.00;;;;;;5046960;28;20029;-76
2021/01/13 02:09:34;;;;;;;25.45;14.95;;;1.50;92.10;;;;;;5051182;28;20098;-74
2021/01/13 02:12:12;;;;;;;23.50;14.55;;;1.40;92.10;;;;;;5052021;28;20041;-76
2021/01/13 02:14:41;;;;;;;23.88;13.05;;;1.40;92.20;;;;;;5052737;28;20393;-76
2021/01/13 02:17:11;;;;;;;20.10;11.65;;;1.40;92.20;;;;;;5045672;28;20063;-75
2021/01/13 02:19:49;;;;;;;17.95;11.82;;;1.50;92.30;;;;;;5056020;28;20041;-74
2021/01/13 02:22:25;;;;;;;19.42;11.40;;;1.50;92.20;;;;;;5050972;28;20049;-75
2021/01/13 02:24:51;;;;;;;18.23;11.25;;;1.50;92.10;;;;;;5051293;28;20139;-75
2021/01/13 02:27:45;;;;;;;25.05;10.98;;;1.50;92.10;;;;;;5048066;28;20119;-74
2021/01/13 02:30:13;;;;;;;22.45;11.55;;;1.50;92.10;;;;;;5046657;28;20384;-76
2021/01/13 02:32:42;;;;;;;21.38;14.18;;;1.50;92.10;;;;;;5053337;28;20068;-76
2021/01/13 02:35:16;;;;;;;19.80;12.80;;;1.50;92.20;;;;;;5051100;28;20215;-75
2021/01/13 02:38:00;;;;;;;20.85;12.63;;;1.50;92.10;;;;;;5045695;28;20036;-75
2021/01/13 02:40:29;;;;;;;21.35;12.70;;;1.50;92.10;;;;;;5045844;28;20110;-75
2021/01/13 02:43:11;;;;;;;23.25;13.68;;;1.40;92.10;;;;;;5048891;28;20068;-76
2021/01/13 02:45:44;;;;;;;22.08;14.25;;;1.50;92.20;;;;;;5051802;28;20032;-75
2021/01/13 02:48:11;;;;;;;20.83;13.50;;;1.40;92.20;;;;;;5047035;28;20377;-75
2021/01/13 02:50:40;;;;;;;20.65;13.07;;;1.40;92.20;;;;;;5049102;28;20044;-76
2021/01/13 02:53:15;;;;;;;23.05;13.27;;;1.40;92.10;;;;;;5045239;28;20491;-75
2021/01/13 02:55:46;;;;;;;21.48;12.68;;;1.40;92.20;;;;;;5050359;28;20060;-75
2021/01/13 02:58:19;;;;;;;22.52;13.18;;;1.50;92.10;;;;;;5046894;28;20036;-81
2021/01/13 03:00:45;;;;;;;23.30;13.20;;;1.50;92.10;;;;;;5049477;28;20037;-75
2021/01/13 03:03:11;;;;;;;23.13;13.15;;;1.50;92.10;;;;;;5048575;28;20071;-76
2021/01/13 03:05:37;;;;;;;19.75;12.95;;;1.50;92.10;;;;;;5050087;28;20040;-82
2021/01/13 03:08:06;;;;;;;23.02;12.70;;;1.50;92.10;;;;;;5043856;28;20045;-75
2021/01/13 03:10:36;;;;;;;20.63;12.60;;;1.50;92.10;;;;;;5047348;28;20025;-75
2021/01/13 03:13:05;;;;;;;21.83;12.73;;;1.40;92.20;;;;;;5046592;28;20033;-75
2021/01/13 03:15:33;;;;;;;20.80;13.15;;;1.40;92.20;;;;;;5047480;28;20037;-75
2021/01/13 03:18:05;;;;;;;20.92;12.23;;;1.50;92.30;;;;;;5049033;28;20061;-75
2021/01/13 03:20:49;;;;;;;19.63;11.55;;;1.50;92.30;;;;;;5047761;28;20504;-75
2021/01/13 03:23:49;;;;;;;20.15;11.50;;;1.50;92.20;;;;;;5048532;28;20033;-75
2021/01/13 03:26:24;;;;;;;20.95;11.02;;;1.50;92.20;;;;;;5044344;28;20037;-76
2021/01/13 03:28:50;;;;;;;21.75;11.10;;;1.50;92.20;;;;;;5045830;28;20041;-78
2021/01/13 03:31:28;;;;;;;19.73;10.70;;;1.50;92.20;;;;;;5047614;28;20043;-75
2021/01/13 03:34:15;;;;;;;18.58;11.23;;;1.50;92.20;;;;;;5052050;28;20067;-76
2021/01/13 03:37:08;;;;;;;21.25;10.48;;;1.60;92.20;;;;;;5043603;28;20387;-77
2021/01/13 03:39:38;;;;;;;18.60;10.23;;;1.60;92.20;;;;;;5048968;28;20037;-75
2021/01/13 03:42:15;;;;;;;19.33;10.20;;;1.60;92.20;;;;;;5049832;28;20040;-75
2021/01/13 03:44:43;;;;;;;19.77;10.68;;;1.60;92.20;;;;;;5048318;28;20029;-75
2021/01/13 03:47:53;;;;;;;22.58;10.65;;;1.60;92.10;;;;;;5047904;28;20040;-75
2021/01/13 03:50:32;;;;;;;18.90;10.38;;;1.70;92.10;;;;;;5046824;28;20130;-76
2021/01/13 03:53:01;;;;;;;19.38;10.38;;;1.70;92.10;;;;;;5046092;28;20107;-76
2021/01/13 03:55:29;;;;;;;19.45;10.43;;;1.60;91.90;;;;;;5047318;28;20052;-82
2021/01/13 03:57:58;;;;;;;18.25;10.48;;;1.70;92.00;;;;;;5042535;28;20037;-76
2021/01/13 04:00:29;;;;;;;17.25;10.70;;;1.70;92.10;;;;;;5044612;28;20036;-76
2021/01/13 04:03:20;;;;;;;24.75;12.40;;;1.60;92.10;;;;;;5050606;28;20044;-75
2021/01/13 04:06:01;;;;;;;19.23;9.70;;;1.70;92.10;;;;;;5047592;28;20164;-75
2021/01/13 04:08:39;;;;;;;22.38;9.95;;;1.70;92.20;;;;;;5049959;28;20041;-76
2021/01/13 04:11:10;;;;;;;20.65;11.10;;;1.80;92.20;;;;;;5051767;28;20048;-77
2021/01/13 04:13:45;;;;;;;17.30;10.35;;;1.80;92.10;;;;;;5046771;28;20029;-76
2021/01/13 04:16:12;;;;;;;;;;;1.70;92.10;;;;;;5047480;28;20033;-75
2021/01/13 04:18:39;;;;;;;20.52;10.10;;;1.80;92.10;;;;;;5047996;28;19917;-77
2021/01/13 04:21:07;;;;;;;18.27;10.50;;;1.70;92.10;;;;;;5042907;28;20033;-75
2021/01/13 04:23:33;;;;;;;18.25;11.13;;;1.90;92.20;;;;;;5047633;28;20033;-77
2021/01/13 04:26:00;;;;;;;23.60;11.80;;;1.90;92.10;;;;;;5047539;28;20037;-76
2021/01/13 04:28:26;;;;;;;21.55;11.98;;;1.80;92.20;;;;;;5047489;28;20041;-75
2021/01/13 04:30:53;;;;;;;21.67;11.82;;;1.80;92.20;;;;;;5047294;28;20576;-76
2021/01/13 04:33:20;;;;;;;22.90;11.57;;;1.80;92.20;;;;;;5043257;28;20041;-76
2021/01/13 04:35:46;;;;;;;25.85;12.50;;;1.90;92.30;;;;;;5047157;28;20041;-76
2021/01/13 04:38:16;;;;;;;23.95;12.30;;;1.90;92.30;;;;;;5047544;28;20094;-78
2021/01/13 04:40:48;;;;;;;23.58;11.60;;;1.90;92.30;;;;;;5046204;28;20479;-82
2021/01/13 04:43:14;;;;;;;22.55;11.48;;;2.00;92.10;;;;;;5050263;28;20404;-75
2021/01/13 04:45:44;;;;;;;23.05;12.20;;;1.90;92.20;;;;;;5048669;28;20044;-76
2021/01/13 04:48:12;;;;;;;22.88;12.65;;;1.90;92.20;;;;;;5050068;28;20029;-76
2021/01/13 04:50:49;;;;;;;24.08;13.25;;;1.90;92.20;;;;;;5054167;28;20124;-75
2021/01/13 04:53:22;;;;;;;23.08;12.77;;;1.90;92.30;;;;;;5047578;28;20523;-75
2021/01/13 04:55:54;;;;;;;25.15;12.82;;;2.00;92.30;;;;;;5040245;28;20071;-76
2021/01/13 04:58:20;;;;;;;20.17;12.45;;;2.00;92.40;;;;;;5041993;28;20091;-76
2021/01/13 05:01:22;;;;;;;23.15;13.50;;;1.90;92.40;;;;;;5046576;28;20431;-75
2021/01/13 05:03:53;;;;;;;23.45;13.73;;;2.00;92.40;;;;;;5050685;28;20048;-75
2021/01/13 05:06:40;;;;;;;25.38;13.45;;;2.00;92.40;;;;;;5050385;28;20060;-75
2021/01/13 05:09:10;;;;;;;23.92;13.50;;;2.00;92.40;;;;;;5046029;28;20120;-87
2021/01/13 05:11:44;;;;;;;26.70;13.30;;;2.00;92.50;;;;;;5047931;28;20146;-75
2021/01/13 05:14:18;;;;;;;24.67;13.35;;;2.00;92.40;;;;;;5046750;28;20029;-75
2021/01/13 05:16:46;;;;;;;25.88;13.98;;;2.10;92.50;;;;;;5061070;28;20033;-76
2021/01/13 05:19:21;;;;;;;23.08;14.48;;;2.10;92.50;;;;;;5045646;28;20052;-80
2021/01/13 05:21:54;;;;;;;22.65;13.57;;;2.10;92.50;;;;;;5047009;28;20041;-76
2021/01/13 05:24:21;;;;;;;22.67;13.48;;;2.10;92.50;;;;;;5043710;28;23164;-75
2021/01/13 05:26:59;;;;;;;25.10;13.02;;;2.00;92.50;;;;;;5044269;28;20427;-80
2021/01/13 05:29:38;;;;;;;30.25;13.23;;;2.10;92.60;;;;;;5045277;28;20029;-79
2021/01/13 05:32:06;;;;;;;23.52;13.40;;;2.10;92.60;;;;;;5046620;28;20435;-76
2021/01/13 05:34:36;;;;;;;23.95;12.63;;;2.10;92.70;;;;;;5044653;28;20041;-76
2021/01/13 05:37:18;;;;;;;24.60;12.80;;;2.10;92.80;;;;;;5045021;28;20477;-75
2021/01/13 05:39:50;;;;;;;19.05;12.25;;;2.10;92.80;;;;;;5047995;28;20334;-77
2021/01/13 05:42:18;;;;;;;27.08;14.05;;;2.10;92.70;;;;;;5049551;28;20464;-77
2021/01/13 05:44:45;;;;;;;24.13;13.13;;;2.10;92.70;;;;;;5043973;28;20443;-75
2021/01/13 05:47:51;;;;;;;22.58;13.93;;;2.10;92.70;;;;;;5049314;28;20029;-76
2021/01/13 05:50:19;;;;;;;24.88;13.20;;;2.10;92.70;;;;;;5047231;28;20044;-77
2021/01/13 05:52:47;;;;;;;28.95;14.73;;;2.20;92.80;;;;;;5048344;28;20037;-78
2021/01/13 05:55:16;;;;;;;24.50;14.00;;;2.20;92.80;;;;;;5050829;28;20044;-80
2021/01/13 05:57:59;;;;;;;24.00;15.43;;;2.20;92.80;;;;;;5047799;28;20384;-79
2021/01/13 06:00:26;;;;;;;30.95;15.43;;;2.20;92.80;;;;;;5047134;28;20681;-85
2021/01/13 06:03:01;;;;;;;24.58;14.75;;;2.20;92.80;;;;;;5049620;28;20056;-78
2021/01/13 06:05:31;;;;;;;27.55;14.55;;;2.20;92.70;;;;;;5051703;28;20072;-77
2021/01/13 06:08:02;;;;;;;25.50;14.20;;;2.20;92.80;;;;;;5056364;28;20468;-76
2021/01/13 06:10:36;;;;;;;24.33;13.95;;;2.30;92.90;;;;;;5049447;28;20033;-82
2021/01/13 06:13:06;;;;;;;27.98;14.80;;;2.30;92.70;;;;;;5046080;28;20540;-75
2021/01/13 06:15:33;;;;;;;27.67;14.68;;;2.30;92.70;;;;;;5052282;28;20029;-76
2021/01/13 06:17:59;;;;;;;24.70;14.50;;;2.30;92.70;;;;;;5051665;28;20033;-76
2021/01/13 06:20:27;;;;;;;25.30;14.45;;;2.30;92.70;;;;;;5049042;28;20059;-76
2021/01/13 06:22:55;;;;;;;28.25;16.20;;;2.30;92.70;;;;;;5048888;28;20083;-75
2021/01/13 06:25:22;;;;;;;26.98;14.70;;;2.30;92.70;;;;;;5048260;28;20045;-76
2021/01/13 06:27:57;;;;;;;22.75;14.43;;;2.30;92.60;;;;;;5048969;28;20057;-76
2021/01/13 06:30:28;;;;;;;24.75;14.80;;;2.30;92.70;;;;;;5049258;28;20029;-76
2021/01/13 06:33:05;;;;;;;21.35;13.80;;;2.30;92.70;;;;;;5048445;28;20132;-81
2021/01/13 06:35:42;;;;;;;27.52;15.43;;;2.30;92.70;;;;;;5046669;28;20024;-77
2021/01/13 06:38:10;;;;;;;27.17;15.95;;;2.30;92.70;;;;;;5049698;28;20052;-80
2021/01/13 06:40:37;;;;;;;27.65;14.68;;;2.30;92.80;;;;;;5044739;28;20069;-80
2021/01/13 06:43:13;;;;;;;31.15;16.35;;;2.30;92.80;;;;;;5049733;28;20037;-76
2021/01/13 06:45:39;;;;;;;27.85;14.82;;;2.30;92.80;;;;;;5047343;28;20041;-75
2021/01/13 06:48:06;;;;;;;31.02;17.02;;;2.30;92.70;;;;;;5048948;28;20049;-76
2021/01/13 06:50:39;;;;;;;31.58;15.98;;;2.40;92.80;;;;;;5048992;28;20033;-76
2021/01/13 06:53:07;;;;;;;32.35;15.18;;;2.30;92.80;;;;;;5049418;28;20365;-77
2021/01/13 06:55:34;;;;;;;31.10;15.40;;;2.30;92.90;;;;;;5047331;28;20094;-76
2021/01/13 06:58:17;;;;;;;29.23;16.13;;;2.40;92.80;;;;;;5048296;28;20041;-76
2021/01/13 07:00:45;;;;;;;29.15;15.38;;;2.40;92.80;;;;;;5045622;28;20071;-78
2021/01/13 07:03:30;;;;;;;27.45;15.80;;;2.30;92.80;;;;;;5044037;28;20033;-76
2021/01/13 07:05:59;;;;;;;25.95;15.02;;;2.30;92.70;;;;;;5047269;28;20044;-76
2021/01/13 07:08:24;;;;;;;31.92;15.60;;;2.30;92.80;;;;;;5052538;28;20025;-78
2021/01/13 07:11:07;;;;;;;28.08;15.45;;;2.30;92.70;;;;;;5047474;28;20037;-76
2021/01/13 07:13:36;;;;;;;29.63;15.85;;;2.30;92.70;;;;;;5050016;28;20041;-77
2021/01/13 07:16:03;;;;;;;24.58;15.40;;;2.40;92.70;;;;;;5050096;28;20037;-76
2021/01/13 07:18:30;;;;;;;29.17;15.93;;;2.40;92.60;;;;;;5050907;28;20029;-75
2021/01/13 07:21:04;;;;;;;27.67;15.77;;;2.40;92.50;;;;;;5048202;28;20033;-76
2021/01/13 07:23:30;;;;;;;31.05;15.70;;;2.40;92.50;;;;;;5050449;28;20072;-76
2021/01/13 07:25:56;;;;;;;25.70;16.35;;;2.30;92.40;;;;;;5049135;28;20033;-76
2021/01/13 07:28:23;;;;;;;29.45;15.90;;;2.30;92.30;;;;;;5050076;28;20033;-76
2021/01/13 07:30:53;;;;;;;26.15;15.48;;;2.20;92.30;;;;;;5055453;28;20123;-74
2021/01/13 07:33:19;;;;;;;27.80;15.55;;;2.20;92.40;;;;;;5053621;28;20072;-79
2021/01/13 07:35:47;;;;;;;25.88;15.40;;;2.20;92.30;;;;;;5056666;28;20036;-76
2021/01/13 07:38:20;;;;;;;27.50;15.07;;;2.10;92.30;;;;;;5054066;28;20029;-75
2021/01/13 07:41:00;;;;;;;30.55;14.70;;;2.10;92.30;;;;;;5047695;28;20049;-76
2021/01/13 07:44:13;;;;;;;31.55;15.57;;;2.20;92.40;;;;;;5046438;28;20033;-72
2021/01/13 07:46:49;;;;;;;29.77;15.50;;;2.10;92.50;;;;;;5042542;28;20163;-70
2021/01/13 07:49:22;;;;;;;30.45;16.85;;;2.10;92.60;;;;;;5046983;28;20037;-70
2021/01/13 07:51:55;;;;;;;29.92;15.68;;;2.10;92.60;;;;;;5044244;28;20033;-70
2021/01/13 07:54:33;;;;;;;24.35;14.10;;;2.20;92.60;;;;;;5046239;28;20040;-71
2021/01/13 07:57:01;;;;;;;27.48;14.38;;;2.20;92.50;;;;;;5051951;28;20392;-70
2021/01/13 07:59:34;;;;;;;33.10;14.52;;;2.20;92.60;;;;;;5046089;28;20032;-71
2021/01/13 08:02:37;;;;;;;25.92;14.02;;;2.30;92.50;;;;;;5048676;28;20464;-71
2021/01/13 08:05:16;;;;;;;27.65;14.48;;;2.30;92.30;;;;;;5047553;28;20067;-69
2021/01/13 08:07:43;;;;;;;24.33;12.98;;;2.30;92.30;;;;;;5045843;28;20115;-70
2021/01/13 08:10:10;;;;;;;29.23;13.82;;;2.30;92.30;;;;;;5043172;28;20471;-70
2021/01/13 08:12:57;;;;;;;23.30;13.20;;;2.30;92.30;;;;;;5049815;28;20116;-70
2021/01/13 08:15:52;;;;;;;27.98;13.77;;;2.40;92.20;;;;;;5044034;28;20037;-71
2021/01/13 08:18:20;;;;;;;25.10;12.90;;;2.40;92.10;;;;;;5045470;28;20033;-70
2021/01/13 08:21:13;;;;;;;25.00;13.60;;;2.40;92.10;;;;;;5047263;28;20392;-69
2021/01/13 08:23:51;;;;;;;27.55;12.88;;;2.50;92.10;;;;;;5046555;28;20143;-70
2021/01/13 08:26:17;;;;;;;23.60;12.60;;;2.50;92.00;;;;;;5045940;28;20037;-69
2021/01/13 08:28:52;;;;;;;24.23;12.70;;;2.60;92.00;;;;;;5045280;28;20071;-70
2021/01/13 08:31:23;;;;;;;20.90;12.45;;;2.60;92.00;;;;;;5045500;28;20068;-71
2021/01/13 08:34:01;;;;;;;25.98;14.05;;;2.60;91.80;;;;;;5045728;28;20033;-70
2021/01/13 08:36:28;;;;;;;22.25;13.30;;;2.60;91.70;;;;;;5048871;28;20041;-71
2021/01/13 08:39:14;;;;;;;23.00;11.90;;;2.70;91.60;;;;;;5044877;28;20399;-70
2021/01/13 08:41:45;;;;;;;23.45;12.43;;;2.70;91.50;;;;;;5043694;28;20488;-70
2021/01/13 08:44:18;;;;;;;24.17;12.38;;;2.80;91.40;;;;;;5046109;28;20043;-72
2021/01/13 08:47:01;;;;;;;20.50;11.45;;;2.80;91.20;;;;;;5045307;28;20122;-71
2021/01/13 08:49:28;;;;;;;25.02;12.45;;;2.90;91.00;;;;;;5047913;28;20036;-71
2021/01/13 08:52:14;;;;;;;23.85;12.60;;;2.90;90.90;;;;;;5046797;28;20045;-70
2021/01/13 08:54:42;;;;;;;26.85;12.40;;;3.00;90.70;;;;;;5046920;28;20412;-69
2021/01/13 08:57:09;;;;;;;24.02;12.32;;;3.00;90.50;;;;;;5045987;28;20511;-71
2021/01/13 08:59:46;;;;;;;22.80;11.57;;;3.10;90.30;;;;;;5046219;28;20423;-70
2021/01/13 09:02:14;;;;;;;22.58;13.27;;;3.10;90.20;;;;;;5046736;28;20060;-72
2021/01/13 09:04:57;;;;;;;20.33;13.27;;;3.10;90.00;;;;;;5044975;28;20040;-71
2021/01/13 09:07:24;;;;;;;23.20;12.88;;;3.20;89.80;;;;;;5046621;28;20037;-73
2021/01/13 09:10:04;;;;;;;21.38;12.57;;;3.30;89.50;;;;;;5043392;28;20288;-72
2021/01/13 09:12:32;;;;;;;23.73;12.68;;;3.30;89.50;;;;;;5049153;28;20068;-71
2021/01/13 09:15:07;;;;;;;23.30;12.20;;;3.40;89.40;;;;;;5043917;28;20033;-71
2021/01/13 09:17:36;;;;;;;20.20;12.13;;;3.40;89.20;;;;;;5045462;28;20041;-72
2021/01/13 09:20:15;;;;;;;21.17;11.60;;;3.40;88.80;;;;;;5046079;28;20083;-71
2021/01/13 09:22:53;;;;;;;20.88;11.60;;;3.30;88.70;;;;;;5042893;28;20041;-72
2021/01/13 09:25:22;;;;;;;20.02;11.57;;;3.40;88.80;;;;;;5043864;28;20091;-71
2021/01/13 09:27:57;;;;;;;21.25;11.55;;;3.50;89.00;;;;;;5044566;28;20067;-71
2021/01/13 09:30:30;;;;;;;17.73;11.25;;;3.70;88.40;;;;;;5046830;28;20037;-71
2021/01/13 09:32:57;;;;;;;20.02;10.93;;;3.90;87.90;;;;;;5049791;28;20071;-71
2021/01/13 09:35:25;;;;;;;21.13;11.95;;;4.10;87.40;;;;;;5043828;28;20065;-71
2021/01/13 09:37:53;;;;;;;18.45;10.40;;;4.20;86.50;;;;;;5048202;28;20506;-72
2021/01/13 09:40:21;;;;;;;17.35;10.35;;;4.20;86.00;;;;;;5044978;28;20029;-72
2021/01/13 09:42:56;;;;;;;18.52;11.25;;;4.30;86.00;;;;;;5045545;28;20430;-73
2021/01/13 09:45:23;;;;;;;16.55;10.00;;;4.30;86.00;;;;;;5045283;28;20444;-72
2021/01/13 09:47:49;;;;;;;21.17;10.10;;;4.30;85.80;;;;;;5046218;28;20033;-71
2021/01/13 09:50:21;;;;;;;19.08;10.65;;;4.30;85.60;;;;;;5046868;28;20373;-70
2021/01/13 09:52:47;;;;;;;19.98;10.02;;;4.30;85.50;;;;;;5044794;28;20391;-71
2021/01/13 09:55:13;;;;;;;16.27;9.52;;;4.30;85.60;;;;;;5045079;28;20051;-72
2021/01/13 09:57:40;;;;;;;17.23;9.70;;;4.30;85.20;;;;;;5043763;28;20055;-72
2021/01/13 10:00:16;;;;;;;17.95;10.55;;;4.30;85.40;;;;;;5042136;28;20029;-75
2021/01/13 10:02:46;;;;;;;19.35;11.60;;;4.30;85.60;;;;;;5041906;28;20497;-71
2021/01/13 10:05:12;;;;;;;20.20;11.05;;;4.30;85.70;;;;;;5046519;28;20051;-73
2021/01/13 10:07:38;;;;;;;20.73;10.90;;;4.30;85.80;;;;;;5042916;28;20067;-71
2021/01/13 10:10:06;;;;;;;18.33;10.35;;;4.30;85.70;;;;;;5045516;28;20392;-71
2021/01/13 10:12:45;;;;;;;16.52;9.90;;;4.30;85.90;;;;;;5045890;28;20484;-73
2021/01/13 10:15:12;;;;;;;17.50;10.90;;;4.30;86.10;;;;;;5049721;28;20396;-71
2021/01/13 10:17:39;;;;;;;19.58;10.30;;;4.30;86.10;;;;;;5045118;28;20051;-70
2021/01/13 10:20:16;;;;;;;20.27;10.15;;;4.40;85.90;;;;;;5043997;28;20089;-71
2021/01/13 10:22:43;;;;;;;17.27;10.18;;;4.40;85.90;;;;;;5045948;28;20048;-72
2021/01/13 10:25:09;;;;;;;14.82;10.77;;;4.30;86.20;;;;;;5041521;28;20033;-71
2021/01/13 10:27:44;;;;;;;18.38;11.23;;;4.30;86.30;;;;;;5047094;28;20047;-76
2021/01/13 10:30:11;;;;;;;19.98;12.60;;;4.30;86.40;;;;;;5047197;28;20107;-72
2021/01/13 10:32:50;;;;;;;23.20;12.32;;;4.30;86.60;;;;;;5047408;28;20041;-75
2021/01/13 10:35:17;;;;;;;20.60;12.07;;;4.30;86.40;;;;;;5049190;28;20033;-73
2021/01/13 10:38:03;;;;;;;18.83;13.00;;;4.20;86.80;;;;;;5048670;28;20032;-69
2021/01/13 10:40:29;;;;;;;18.77;11.93;;;4.20;87.00;;;;;;5039695;28;20037;-71
2021/01/13 10:42:55;;;;;;;19.92;13.07;;;4.20;87.00;;;;;;5047914;28;20056;-71
2021/01/13 10:45:22;;;;;;;24.08;12.82;;;4.20;87.00;;;;;;5052879;28;20064;-73
2021/01/13 10:48:00;;;;;;;20.98;12.70;;;4.20;87.10;;;;;;5048789;28;20052;-69
2021/01/13 10:50:28;;;;;;;23.65;11.32;;;4.30;87.30;;;;;;5049843;28;20036;-70
2021/01/13 10:52:56;;;;;;;21.55;12.15;;;4.30;87.30;;;;;;5054593;28;20047;-71
2021/01/13 10:55:24;;;;;;;25.48;14.50;;;4.30;87.20;;;;;;5041486;28;20041;-72
2021/01/13 10:57:51;;;;;;;25.27;16.33;;;4.30;87.40;;;;;;5045371;28;20464;-71
2021/01/13 11:00:18;;;;;;;22.52;14.52;;;4.30;87.40;;;;;;5044816;28;20135;-71
2021/01/13 11:02:55;;;;;;;23.15;13.88;;;4.40;87.40;;;;;;5046851;28;20110;-71
2021/01/13 11:05:21;;;;;;;22.20;13.88;;;4.40;87.40;;;;;;5051887;28;20040;-72
2021/01/13 11:07:51;;;;;;;24.15;14.23;;;4.40;87.40;;;;;;5045366;28;20760;-70
2021/01/13 11:10:17;;;;;;;19.88;13.23;;;4.50;87.40;;;;;;5048464;28;20029;-69
2021/01/13 11:12:43;;;;;;;24.23;13.88;;;4.60;87.20;;;;;;5047819;28;20451;-70
2021/01/13 11:15:10;;;;;;;20.95;13.90;;;4.60;87.20;;;;;;5050385;28;20031;-71
2021/01/13 11:17:39;;;;;;;22.13;13.82;;;4.60;87.20;;;;;;5052229;28;20044;-70
2021/01/13 11:20:06;;;;;;;21.08;13.85;;;4.60;87.20;;;;;;5046015;28;20025;-74
2021/01/13 11:22:47;;;;;;;22.08;14.15;;;4.70;87.20;;;;;;5042042;28;20044;-71
2021/01/13 11:25:30;;;;;;;22.67;14.60;;;4.70;87.20;;;;;;5041306;28;20412;-69
2021/01/13 11:27:59;;;;;;;23.23;14.38;;;4.80;87.10;;;;;;5039927;28;20041;-74
2021/01/13 11:30:27;;;;;;;24.90;15.13;;;4.80;87.00;;;;;;5038674;28;20051;-74
2021/01/13 11:32:54;;;;;;;24.88;14.32;;;4.90;86.70;;;;;;5039887;28;20040;-70
2021/01/13 11:35:33;;;;;;;22.50;14.52;;;5.00;86.50;;;;;;5040520;28;20078;-70
2021/01/13 11:38:22;;;;;;;22.88;14.50;;;5.00;86.60;;;;;;5038991;28;20033;-70
2021/01/13 11:41:18;;;;;;;24.88;14.18;;;5.10;86.50;;;;;;5007269;28;20048;-70
2021/01/13 11:44:03;;;;;;;23.17;14.35;;;5.10;86.50;;;;;;5039328;28;20512;-70
2021/01/13 11:46:33;;;;;;;25.93;14.20;;;5.20;86.40;;;;;;5037867;28;20853;-71
2021/01/13 11:49:14;;;;;;;19.92;13.52;;;5.20;86.30;;;;;;5044813;28;20051;-69
2021/01/13 12:13:17;;;;;;;29.42;15.85;;;5.30;86.90;;;;;;5036227;28;20072;-71
2021/01/13 12:16:03;;;;;;;26.25;17.02;;;5.30;87.20;;;;;;5045367;28;20364;-72
2021/01/13 12:18:33;;;;;;;26.77;16.95;;;5.30;87.40;;;;;;5040859;28;20052;-71
2021/01/13 12:21:24;;;;;;;24.95;16.33;;;5.30;87.70;;;;;;5038334;28;20037;-70
2021/01/13 12:23:51;;;;;;;26.13;17.25;;;5.40;87.90;;;;;;5036247;28;20511;-72
2021/01/13 12:26:29;;;;;;;27.77;18.70;;;5.30;88.50;;;;;;5038047;28;20134;-70
2021/01/13 12:29:03;;;;;;;28.17;19.58;;;5.30;88.80;;;;;;5039636;28;20040;-73
2021/01/13 12:31:37;;;;;;;29.10;18.38;;;5.30;89.10;;;;;;5044184;28;20079;-72
2021/01/13 12:34:09;;;;;;;28.45;20.20;;;5.30;89.30;;;;;;5038912;28;20041;-70
2021/01/13 12:36:40;;;;;;;35.17;21.38;;;5.30;89.60;;;;;;5042067;28;20029;-70
2021/01/13 12:39:07;;;;;;;32.38;22.45;;;5.30;89.80;;;;;;5039800;28;20133;-71
2021/01/13 12:41:35;;;;;;;34.85;24.05;;;5.30;90.00;;;;;;5041802;28;20067;-70
2021/01/13 12:44:06;;;;;;;37.22;24.98;;;5.30;90.40;;;;;;5043333;28;20049;-73
2021/01/13 12:46:37;;;;;;;39.72;24.77;;;5.30;90.60;;;;;;5045335;28;20468;-70
2021/01/13 12:49:04;;;;;;;39.58;26.83;;;5.30;90.80;;;;;;5046601;28;20052;-72
2021/01/13 12:51:30;;;;;;;35.95;25.23;;;5.30;91.00;;;;;;5042983;28;20033;-73
2021/01/13 12:53:58;;;;;;;37.20;26.73;;;5.30;91.30;;;;;;5042488;28;20125;-69
2021/01/13 12:56:25;;;;;;;41.63;30.20;;;5.40;91.40;;;;;;5043994;28;20037;-70
2021/01/13 12:58:51;;;;;;;44.97;30.65;;;5.40;91.50;;;;;;5038477;28;20562;-71
2021/01/13 13:01:17;;;;;;;44.35;31.45;;;5.40;91.70;;;;;;5036782;28;20033;-69
2021/01/13 13:03:43;;;;;;;44.67;32.08;;;5.40;91.80;;;;;;5046644;28;20051;-69
2021/01/13 13:06:09;;;;;;;46.42;33.17;;;5.50;91.80;;;;;;5044175;28;20024;-69
2021/01/13 13:08:35;;;;;;;46.65;33.30;;;5.50;91.90;;;;;;5046032;28;20488;-68
2021/01/13 13:11:07;;;;;;;53.67;37.00;;;5.40;92.00;;;;;;5044681;28;20124;-70
2021/01/13 13:13:32;;;;;;;47.97;33.80;;;5.40;92.10;;;;;;5047697;28;20060;-69
2021/01/13 13:15:58;;;;;;;48.28;34.75;;;5.40;92.10;;;;;;5045918;28;20762;-70
2021/01/13 13:18:23;;;;;;;46.17;34.20;;;5.40;92.10;;;;;;5046131;28;20045;-69
2021/01/13 13:20:49;;;;;;;55.70;36.25;;;5.40;92.20;;;;;;5042087;28;20074;-70
2021/01/13 13:23:15;;;;;;;47.15;34.20;;;5.40;92.30;;;;;;5040329;28;20111;-72